sensor_id;sensor_type;location;lat;lon;timestamp;P1;durP1;ratioP1;P2;durP2;ratioP2
3417;SDS011;68007;51.312;12.372;2024-03-17T00:01:19;6.80;;;3.60;;
3417;SDS011;68007;51.312;12.372;2024-03-17T00:03:45;7.97;;;3.97;;
3417;SDS011;68007;51.312;12.372;2024-03-17T00:06:13;8.40;;;4.03;;
3417;SDS011;68007;51.312;12.372;2024-03-17T00:08:41;10.87;;;4.53;;
3417;SDS011;68007;51.312;12.372;2024-03-17T00:11:08;9.20;;;4.23;;
3417;SDS011;68007;51.312;12.372;2024-03-17T00:13:35;7.23;;;3.60;;
3417;SDS011;68007;51.312;12.372;2024-03-17T00:16:03;7.87;;;3.83;;
3417;SDS011;68007;51.312;12.372;2024-03-17T00:18:30;6.73;;;3.60;;
3417;SDS011;68007;51.312;12.372;2024-03-17T00:20:58;13.03;;;4.17;;
3417;SDS011;68007;51.312;12.372;2024-03-17T00:23:25;9.00;;;3.73;;
3417;SDS011;68007;51.312;12.372;2024-03-17T00:25:55;6.33;;;3.47;;
3417;SDS011;68007;51.312;12.372;2024-03-17T00:28:22;7.50;;;3.50;;
3417;SDS011;68007;51.312;12.372;2024-03-17T00:30:50;10.40;;;4.17;;
3417;SDS011;68007;51.312;12.372;2024-03-17T00:33:17;8.40;;;3.40;;
3417;SDS011;68007;51.312;12.372;2024-03-17T00:35:46;8.07;;;4.60;;
3417;SDS011;68007;51.312;12.372;2024-03-17T00:38:12;9.40;;;4.23;;
3417;SDS011;68007;51.312;12.372;2024-03-17T00:40:40;5.13;;;4.03;;
3417;SDS011;68007;51.312;12.372;2024-03-17T00:43:08;8.63;;;4.10;;
3417;SDS011;68007;51.312;12.372;2024-03-17T00:45:37;7.30;;;3.00;;
3417;SDS011;68007;51.312;12.372;2024-03-17T00:48:03;6.10;;;3.40;;
3417;SDS011;68007;51.312;12.372;2024-03-17T00:50:32;6.37;;;3.80;;
3417;SDS011;68007;51.312;12.372;2024-03-17T00:52:58;16.17;;;3.73;;
3417;SDS011;68007;51.312;12.372;2024-03-17T00:55:27;5.90;;;3.43;;
3417;SDS011;68007;51.312;12.372;2024-03-17T00:57:54;7.37;;;3.30;;
3417;SDS011;68007;51.312;12.372;2024-03-17T01:00:23;5.90;;;3.17;;
3417;SDS011;68007;51.312;12.372;2024-03-17T01:02:49;5.20;;;3.07;;
3417;SDS011;68007;51.312;12.372;2024-03-17T01:05:17;7.07;;;3.40;;
3417;SDS011;68007;51.312;12.372;2024-03-17T01:07:43;12.90;;;3.60;;
3417;SDS011;68007;51.312;12.372;2024-03-17T01:10:12;7.23;;;3.83;;
3417;SDS011;68007;51.312;12.372;2024-03-17T01:12:39;6.70;;;3.30;;
3417;SDS011;68007;51.312;12.372;2024-03-17T01:15:07;5.30;;;2.90;;
3417;SDS011;68007;51.312;12.372;2024-03-17T01:17:35;7.57;;;4.53;;
3417;SDS011;68007;51.312;12.372;2024-03-17T01:20:03;5.70;;;3.37;;
3417;SDS011;68007;51.312;12.372;2024-03-17T01:22:30;5.40;;;3.50;;
3417;SDS011;68007;51.312;12.372;2024-03-17T01:24:58;3.87;;;2.87;;
3417;SDS011;68007;51.312;12.372;2024-03-17T01:27:24;5.87;;;3.23;;
3417;SDS011;68007;51.312;12.372;2024-03-17T01:29:52;6.50;;;3.07;;
3417;SDS011;68007;51.312;12.372;2024-03-17T01:32:18;4.73;;;2.47;;
3417;SDS011;68007;51.312;12.372;2024-03-17T01:34:47;6.73;;;3.60;;
3417;SDS011;68007;51.312;12.372;2024-03-17T01:37:14;7.83;;;3.50;;
3417;SDS011;68007;51.312;12.372;2024-03-17T01:39:41;4.80;;;2.63;;
3417;SDS011;68007;51.312;12.372;2024-03-17T01:42:08;4.00;;;2.60;;
3417;SDS011;68007;51.312;12.372;2024-03-17T01:44:35;8.77;;;3.00;;
3417;SDS011;68007;51.312;12.372;2024-03-17T01:47:02;5.60;;;2.93;;
3417;SDS011;68007;51.312;12.372;2024-03-17T01:49:30;5.83;;;2.97;;
3417;SDS011;68007;51.312;12.372;2024-03-17T01:51:58;5.53;;;2.50;;
3417;SDS011;68007;51.312;12.372;2024-03-17T01:54:26;8.27;;;3.40;;
3417;SDS011;68007;51.312;12.372;2024-03-17T01:56:53;4.80;;;2.73;;
3417;SDS011;68007;51.312;12.372;2024-03-17T01:59:20;6.43;;;3.43;;
3417;SDS011;68007;51.312;12.372;2024-03-17T02:01:47;9.40;;;3.13;;
3417;SDS011;68007;51.312;12.372;2024-03-17T02:04:15;8.93;;;3.13;;
3417;SDS011;68007;51.312;12.372;2024-03-17T02:06:43;4.97;;;3.20;;
3417;SDS011;68007;51.312;12.372;2024-03-17T02:09:12;4.57;;;2.40;;
3417;SDS011;68007;51.312;12.372;2024-03-17T02:11:38;3.17;;;2.60;;
3417;SDS011;68007;51.312;12.372;2024-03-17T02:14:06;7.63;;;2.77;;
3417;SDS011;68007;51.312;12.372;2024-03-17T02:16:33;4.93;;;2.73;;
3417;SDS011;68007;51.312;12.372;2024-03-17T02:19:00;5.17;;;2.97;;
3417;SDS011;68007;51.312;12.372;2024-03-17T02:21:27;7.37;;;3.80;;
3417;SDS011;68007;51.312;12.372;2024-03-17T02:23:57;12.10;;;3.70;;
3417;SDS011;68007;51.312;12.372;2024-03-17T02:26:24;8.37;;;4.30;;
3417;SDS011;68007;51.312;12.372;2024-03-17T02:28:52;9.50;;;4.30;;
3417;SDS011;68007;51.312;12.372;2024-03-17T02:31:19;7.43;;;3.13;;
3417;SDS011;68007;51.312;12.372;2024-03-17T02:33:48;8.67;;;3.30;;
3417;SDS011;68007;51.312;12.372;2024-03-17T02:36:14;5.50;;;3.10;;
3417;SDS011;68007;51.312;12.372;2024-03-17T02:38:43;11.50;;;3.50;;
3417;SDS011;68007;51.312;12.372;2024-03-17T02:41:29;6.40;;;4.20;;
3417;SDS011;68007;51.312;12.372;2024-03-17T02:43:56;6.00;;;3.23;;
3417;SDS011;68007;51.312;12.372;2024-03-17T02:46:24;4.63;;;2.93;;
3417;SDS011;68007;51.312;12.372;2024-03-17T02:48:52;12.10;;;3.07;;
3417;SDS011;68007;51.312;12.372;2024-03-17T02:51:21;7.40;;;3.80;;
3417;SDS011;68007;51.312;12.372;2024-03-17T02:53:50;8.70;;;3.50;;
3417;SDS011;68007;51.312;12.372;2024-03-17T02:56:18;4.83;;;3.13;;
3417;SDS011;68007;51.312;12.372;2024-03-17T02:58:47;7.27;;;3.03;;
3417;SDS011;68007;51.312;12.372;2024-03-17T03:01:17;4.40;;;2.60;;
3417;SDS011;68007;51.312;12.372;2024-03-17T03:03:45;5.67;;;2.67;;
3417;SDS011;68007;51.312;12.372;2024-03-17T03:06:12;10.40;;;3.03;;
3417;SDS011;68007;51.312;12.372;2024-03-17T03:08:43;4.60;;;2.70;;
3417;SDS011;68007;51.312;12.372;2024-03-17T03:11:14;8.47;;;2.63;;
3417;SDS011;68007;51.312;12.372;2024-03-17T03:13:43;10.73;;;4.03;;
3417;SDS011;68007;51.312;12.372;2024-03-17T03:16:12;5.60;;;3.77;;
3417;SDS011;68007;51.312;12.372;2024-03-17T03:18:41;8.83;;;4.87;;
3417;SDS011;68007;51.312;12.372;2024-03-17T03:21:10;6.00;;;3.00;;
3417;SDS011;68007;51.312;12.372;2024-03-17T03:23:38;7.90;;;3.20;;
3417;SDS011;68007;51.312;12.372;2024-03-17T03:26:05;8.07;;;3.50;;
3417;SDS011;68007;51.312;12.372;2024-03-17T03:28:35;5.53;;;2.87;;
3417;SDS011;68007;51.312;12.372;2024-03-17T03:31:02;6.03;;;3.13;;
3417;SDS011;68007;51.312;12.372;2024-03-17T03:33:31;8.40;;;2.80;;
3417;SDS011;68007;51.312;12.372;2024-03-17T03:35:59;9.10;;;3.07;;
3417;SDS011;68007;51.312;12.372;2024-03-17T03:38:34;7.03;;;2.73;;
3417;SDS011;68007;51.312;12.372;2024-03-17T03:41:05;9.80;;;3.43;;
3417;SDS011;68007;51.312;12.372;2024-03-17T03:43:34;6.00;;;3.20;;
3417;SDS011;68007;51.312;12.372;2024-03-17T03:46:02;6.50;;;2.63;;
3417;SDS011;68007;51.312;12.372;2024-03-17T03:48:31;5.90;;;2.50;;
3417;SDS011;68007;51.312;12.372;2024-03-17T03:51:02;4.60;;;2.57;;
3417;SDS011;68007;51.312;12.372;2024-03-17T03:53:31;7.30;;;3.23;;
3417;SDS011;68007;51.312;12.372;2024-03-17T03:55:58;4.53;;;2.80;;
3417;SDS011;68007;51.312;12.372;2024-03-17T03:58:27;4.03;;;2.17;;
3417;SDS011;68007;51.312;12.372;2024-03-17T04:00:54;5.17;;;2.83;;
3417;SDS011;68007;51.312;12.372;2024-03-17T04:03:22;6.00;;;2.80;;
3417;SDS011;68007;51.312;12.372;2024-03-17T04:05:51;4.90;;;2.83;;
3417;SDS011;68007;51.312;12.372;2024-03-17T04:08:27;6.27;;;2.90;;
3417;SDS011;68007;51.312;12.372;2024-03-17T04:10:54;8.00;;;4.23;;
3417;SDS011;68007;51.312;12.372;2024-03-17T04:13:22;7.30;;;2.67;;
3417;SDS011;68007;51.312;12.372;2024-03-17T04:15:49;8.60;;;2.90;;
3417;SDS011;68007;51.312;12.372;2024-03-17T04:18:22;6.87;;;3.13;;
3417;SDS011;68007;51.312;12.372;2024-03-17T04:20:52;5.10;;;2.70;;
3417;SDS011;68007;51.312;12.372;2024-03-17T04:23:20;7.97;;;3.20;;
3417;SDS011;68007;51.312;12.372;2024-03-17T04:25:48;6.23;;;2.50;;
3417;SDS011;68007;51.312;12.372;2024-03-17T04:28:16;6.03;;;3.03;;
3417;SDS011;68007;51.312;12.372;2024-03-17T04:30:44;9.53;;;3.53;;
3417;SDS011;68007;51.312;12.372;2024-03-17T04:33:11;10.37;;;3.27;;
3417;SDS011;68007;51.312;12.372;2024-03-17T04:35:39;6.93;;;2.80;;
3417;SDS011;68007;51.312;12.372;2024-03-17T04:38:08;8.13;;;2.87;;
3417;SDS011;68007;51.312;12.372;2024-03-17T04:40:39;5.40;;;2.80;;
3417;SDS011;68007;51.312;12.372;2024-03-17T04:43:07;7.60;;;2.57;;
3417;SDS011;68007;51.312;12.372;2024-03-17T04:45:35;7.10;;;3.53;;
3417;SDS011;68007;51.312;12.372;2024-03-17T04:48:03;4.93;;;2.67;;
3417;SDS011;68007;51.312;12.372;2024-03-17T04:50:31;5.57;;;3.07;;
3417;SDS011;68007;51.312;12.372;2024-03-17T04:52:58;4.30;;;2.80;;
3417;SDS011;68007;51.312;12.372;2024-03-17T04:55:27;4.87;;;2.90;;
3417;SDS011;68007;51.312;12.372;2024-03-17T04:57:55;5.73;;;2.87;;
3417;SDS011;68007;51.312;12.372;2024-03-17T05:00:23;7.73;;;3.23;;
3417;SDS011;68007;51.312;12.372;2024-03-17T05:02:51;8.00;;;2.97;;
3417;SDS011;68007;51.312;12.372;2024-03-17T05:05:19;7.13;;;3.03;;
3417;SDS011;68007;51.312;12.372;2024-03-17T05:07:49;6.63;;;3.40;;
3417;SDS011;68007;51.312;12.372;2024-03-17T05:10:17;5.67;;;3.30;;
3417;SDS011;68007;51.312;12.372;2024-03-17T05:12:45;5.03;;;2.97;;
3417;SDS011;68007;51.312;12.372;2024-03-17T05:15:13;8.70;;;3.30;;
3417;SDS011;68007;51.312;12.372;2024-03-17T05:17:41;7.07;;;3.33;;
3417;SDS011;68007;51.312;12.372;2024-03-17T05:20:09;5.10;;;3.00;;
3417;SDS011;68007;51.312;12.372;2024-03-17T05:22:39;8.40;;;2.83;;
3417;SDS011;68007;51.312;12.372;2024-03-17T05:25:06;4.73;;;3.00;;
3417;SDS011;68007;51.312;12.372;2024-03-17T05:27:34;3.97;;;2.70;;
3417;SDS011;68007;51.312;12.372;2024-03-17T05:30:03;8.97;;;3.10;;
3417;SDS011;68007;51.312;12.372;2024-03-17T05:32:34;4.43;;;2.60;;
3417;SDS011;68007;51.312;12.372;2024-03-17T05:35:02;8.07;;;3.30;;
3417;SDS011;68007;51.312;12.372;2024-03-17T05:37:29;7.27;;;2.90;;
3417;SDS011;68007;51.312;12.372;2024-03-17T05:39:57;7.83;;;3.57;;
3417;SDS011;68007;51.312;12.372;2024-03-17T05:42:24;8.60;;;3.63;;
3417;SDS011;68007;51.312;12.372;2024-03-17T05:44:52;8.23;;;4.10;;
3417;SDS011;68007;51.312;12.372;2024-03-17T05:47:21;7.73;;;3.30;;
3417;SDS011;68007;51.312;12.372;2024-03-17T05:49:49;7.43;;;3.30;;
3417;SDS011;68007;51.312;12.372;2024-03-17T05:52:16;10.73;;;3.33;;
3417;SDS011;68007;51.312;12.372;2024-03-17T05:54:44;7.57;;;3.00;;
3417;SDS011;68007;51.312;12.372;2024-03-17T05:57:11;10.23;;;3.37;;
3417;SDS011;68007;51.312;12.372;2024-03-17T05:59:41;6.37;;;3.40;;
3417;SDS011;68007;51.312;12.372;2024-03-17T06:02:09;5.60;;;3.10;;
3417;SDS011;68007;51.312;12.372;2024-03-17T06:04:38;4.93;;;3.40;;
3417;SDS011;68007;51.312;12.372;2024-03-17T06:07:05;9.03;;;3.83;;
3417;SDS011;68007;51.312;12.372;2024-03-17T06:09:32;8.13;;;3.40;;
3417;SDS011;68007;51.312;12.372;2024-03-17T06:12:00;7.17;;;3.50;;
3417;SDS011;68007;51.312;12.372;2024-03-17T06:14:27;9.17;;;3.60;;
3417;SDS011;68007;51.312;12.372;2024-03-17T06:16:55;9.97;;;2.87;;
3417;SDS011;68007;51.312;12.372;2024-03-17T06:19:22;8.00;;;3.40;;
3417;SDS011;68007;51.312;12.372;2024-03-17T06:21:51;5.23;;;3.40;;
3417;SDS011;68007;51.312;12.372;2024-03-17T06:24:19;9.50;;;3.63;;
3417;SDS011;68007;51.312;12.372;2024-03-17T06:26:47;6.30;;;3.20;;
3417;SDS011;68007;51.312;12.372;2024-03-17T06:29:17;7.63;;;3.13;;
3417;SDS011;68007;51.312;12.372;2024-03-17T06:31:45;7.27;;;3.07;;
3417;SDS011;68007;51.312;12.372;2024-03-17T06:34:13;6.20;;;3.67;;
3417;SDS011;68007;51.312;12.372;2024-03-17T06:36:41;5.17;;;3.33;;
3417;SDS011;68007;51.312;12.372;2024-03-17T06:39:10;6.93;;;3.47;;
3417;SDS011;68007;51.312;12.372;2024-03-17T06:41:41;10.23;;;3.97;;
3417;SDS011;68007;51.312;12.372;2024-03-17T06:44:09;4.57;;;3.40;;
3417;SDS011;68007;51.312;12.372;2024-03-17T06:46:36;5.53;;;2.83;;
3417;SDS011;68007;51.312;12.372;2024-03-17T06:49:04;6.23;;;3.40;;
3417;SDS011;68007;51.312;12.372;2024-03-17T06:51:31;11.07;;;3.60;;
3417;SDS011;68007;51.312;12.372;2024-03-17T06:53:59;4.53;;;3.07;;
3417;SDS011;68007;51.312;12.372;2024-03-17T06:56:28;4.00;;;3.13;;
3417;SDS011;68007;51.312;12.372;2024-03-17T06:58:58;5.67;;;3.17;;
3417;SDS011;68007;51.312;12.372;2024-03-17T07:01:26;10.83;;;3.70;;
3417;SDS011;68007;51.312;12.372;2024-03-17T07:03:53;7.70;;;3.97;;
3417;SDS011;68007;51.312;12.372;2024-03-17T07:06:21;6.30;;;3.67;;
3417;SDS011;68007;51.312;12.372;2024-03-17T07:08:48;9.80;;;4.10;;
3417;SDS011;68007;51.312;12.372;2024-03-17T07:11:16;10.90;;;3.93;;
3417;SDS011;68007;51.312;12.372;2024-03-17T07:13:45;8.13;;;3.83;;
3417;SDS011;68007;51.312;12.372;2024-03-17T07:16:12;8.90;;;3.97;;
3417;SDS011;68007;51.312;12.372;2024-03-17T07:18:40;6.83;;;4.00;;
3417;SDS011;68007;51.312;12.372;2024-03-17T07:21:09;6.27;;;4.00;;
3417;SDS011;68007;51.312;12.372;2024-03-17T07:23:37;8.40;;;3.90;;
3417;SDS011;68007;51.312;12.372;2024-03-17T07:26:04;7.27;;;3.70;;
3417;SDS011;68007;51.312;12.372;2024-03-17T07:28:33;8.50;;;4.13;;
3417;SDS011;68007;51.312;12.372;2024-03-17T07:31:01;6.77;;;3.50;;
3417;SDS011;68007;51.312;12.372;2024-03-17T07:33:29;6.27;;;4.33;;
3417;SDS011;68007;51.312;12.372;2024-03-17T07:35:57;6.27;;;3.63;;
3417;SDS011;68007;51.312;12.372;2024-03-17T07:38:27;8.53;;;3.80;;
3417;SDS011;68007;51.312;12.372;2024-03-17T07:40:56;6.07;;;3.17;;
3417;SDS011;68007;51.312;12.372;2024-03-17T07:43:24;13.87;;;3.53;;
3417;SDS011;68007;51.312;12.372;2024-03-17T07:45:58;5.27;;;3.40;;
3417;SDS011;68007;51.312;12.372;2024-03-17T07:48:28;8.83;;;3.20;;
3417;SDS011;68007;51.312;12.372;2024-03-17T07:50:55;6.07;;;3.20;;
3417;SDS011;68007;51.312;12.372;2024-03-17T07:53:24;7.67;;;3.60;;
3417;SDS011;68007;51.312;12.372;2024-03-17T07:55:59;6.07;;;2.87;;
3417;SDS011;68007;51.312;12.372;2024-03-17T07:58:27;9.50;;;3.43;;
3417;SDS011;68007;51.312;12.372;2024-03-17T08:00:57;5.90;;;3.23;;
3417;SDS011;68007;51.312;12.372;2024-03-17T08:03:28;12.73;;;3.30;;
3417;SDS011;68007;51.312;12.372;2024-03-17T08:05:57;8.30;;;3.40;;
3417;SDS011;68007;51.312;12.372;2024-03-17T08:08:24;8.40;;;3.27;;
3417;SDS011;68007;51.312;12.372;2024-03-17T08:10:52;8.20;;;3.27;;
3417;SDS011;68007;51.312;12.372;2024-03-17T08:13:20;7.53;;;3.60;;
3417;SDS011;68007;51.312;12.372;2024-03-17T08:15:55;8.73;;;3.20;;
3417;SDS011;68007;51.312;12.372;2024-03-17T08:18:23;8.60;;;3.17;;
3417;SDS011;68007;51.312;12.372;2024-03-17T08:20:54;6.97;;;3.17;;
3417;SDS011;68007;51.312;12.372;2024-03-17T08:23:22;6.10;;;3.30;;
3417;SDS011;68007;51.312;12.372;2024-03-17T08:25:52;6.50;;;3.30;;
3417;SDS011;68007;51.312;12.372;2024-03-17T08:28:20;8.87;;;3.67;;
3417;SDS011;68007;51.312;12.372;2024-03-17T08:30:51;7.73;;;3.07;;
3417;SDS011;68007;51.312;12.372;2024-03-17T08:33:20;10.10;;;3.47;;
3417;SDS011;68007;51.312;12.372;2024-03-17T08:35:56;8.80;;;3.00;;
3417;SDS011;68007;51.312;12.372;2024-03-17T08:38:24;6.00;;;2.97;;
3417;SDS011;68007;51.312;12.372;2024-03-17T08:40:53;7.77;;;3.20;;
3417;SDS011;68007;51.312;12.372;2024-03-17T08:43:21;6.30;;;3.00;;
3417;SDS011;68007;51.312;12.372;2024-03-17T08:45:55;6.90;;;3.00;;
3417;SDS011;68007;51.312;12.372;2024-03-17T08:48:24;7.43;;;2.70;;
3417;SDS011;68007;51.312;12.372;2024-03-17T08:50:52;6.23;;;3.30;;
3417;SDS011;68007;51.312;12.372;2024-03-17T08:53:21;15.17;;;3.00;;
3417;SDS011;68007;51.312;12.372;2024-03-17T08:55:50;10.43;;;2.63;;
3417;SDS011;68007;51.312;12.372;2024-03-17T08:58:17;6.97;;;3.30;;
3417;SDS011;68007;51.312;12.372;2024-03-17T09:00:45;12.30;;;3.50;;
3417;SDS011;68007;51.312;12.372;2024-03-17T09:03:12;5.80;;;3.40;;
3417;SDS011;68007;51.312;12.372;2024-03-17T09:05:41;9.90;;;3.20;;
3417;SDS011;68007;51.312;12.372;2024-03-17T09:08:11;7.70;;;3.23;;
3417;SDS011;68007;51.312;12.372;2024-03-17T09:10:44;9.30;;;3.13;;
3417;SDS011;68007;51.312;12.372;2024-03-17T09:13:13;12.20;;;3.37;;
3417;SDS011;68007;51.312;12.372;2024-03-17T09:15:49;15.47;;;3.37;;
3417;SDS011;68007;51.312;12.372;2024-03-17T09:18:17;13.03;;;2.93;;
3417;SDS011;68007;51.312;12.372;2024-03-17T09:20:45;9.27;;;3.80;;
3417;SDS011;68007;51.312;12.372;2024-03-17T09:23:12;7.73;;;3.13;;
3417;SDS011;68007;51.312;12.372;2024-03-17T09:25:40;8.83;;;2.70;;
3417;SDS011;68007;51.312;12.372;2024-03-17T09:28:09;7.97;;;3.03;;
3417;SDS011;68007;51.312;12.372;2024-03-17T09:30:37;6.00;;;2.63;;
3417;SDS011;68007;51.312;12.372;2024-03-17T09:33:05;13.63;;;4.33;;
3417;SDS011;68007;51.312;12.372;2024-03-17T09:35:33;6.60;;;2.77;;
3417;SDS011;68007;51.312;12.372;2024-03-17T09:38:00;9.00;;;2.43;;
3417;SDS011;68007;51.312;12.372;2024-03-17T09:40:30;11.93;;;3.20;;
3417;SDS011;68007;51.312;12.372;2024-03-17T09:42:58;8.63;;;3.20;;
3417;SDS011;68007;51.312;12.372;2024-03-17T09:45:26;6.80;;;3.00;;
3417;SDS011;68007;51.312;12.372;2024-03-17T09:47:55;11.23;;;3.30;;
3417;SDS011;68007;51.312;12.372;2024-03-17T09:50:23;7.23;;;3.13;;
3417;SDS011;68007;51.312;12.372;2024-03-17T09:52:51;13.63;;;2.87;;
3417;SDS011;68007;51.312;12.372;2024-03-17T09:55:19;5.37;;;3.00;;
3417;SDS011;68007;51.312;12.372;2024-03-17T09:57:47;5.37;;;2.87;;
3417;SDS011;68007;51.312;12.372;2024-03-17T10:00:15;8.50;;;3.50;;
3417;SDS011;68007;51.312;12.372;2024-03-17T10:02:44;7.77;;;3.13;;
3417;SDS011;68007;51.312;12.372;2024-03-17T10:05:19;7.20;;;3.40;;
3417;SDS011;68007;51.312;12.372;2024-03-17T10:07:47;6.20;;;3.10;;
3417;SDS011;68007;51.312;12.372;2024-03-17T10:10:16;11.93;;;3.43;;
3417;SDS011;68007;51.312;12.372;2024-03-17T10:12:44;12.37;;;3.80;;
3417;SDS011;68007;51.312;12.372;2024-03-17T10:15:17;7.30;;;3.97;;
3417;SDS011;68007;51.312;12.372;2024-03-17T10:17:47;10.70;;;3.17;;
3417;SDS011;68007;51.312;12.372;2024-03-17T10:20:15;9.20;;;3.53;;
3417;SDS011;68007;51.312;12.372;2024-03-17T10:23:00;8.50;;;3.07;;
3417;SDS011;68007;51.312;12.372;2024-03-17T10:25:29;9.13;;;3.57;;
3417;SDS011;68007;51.312;12.372;2024-03-17T10:27:58;6.30;;;2.80;;
3417;SDS011;68007;51.312;12.372;2024-03-17T10:30:26;6.00;;;3.90;;
3417;SDS011;68007;51.312;12.372;2024-03-17T10:32:57;8.30;;;3.70;;
3417;SDS011;68007;51.312;12.372;2024-03-17T10:35:26;8.60;;;3.80;;
3417;SDS011;68007;51.312;12.372;2024-03-17T10:37:56;9.53;;;3.70;;
3417;SDS011;68007;51.312;12.372;2024-03-17T10:40:25;7.23;;;3.60;;
3417;SDS011;68007;51.312;12.372;2024-03-17T10:42:54;7.40;;;3.27;;
3417;SDS011;68007;51.312;12.372;2024-03-17T10:45:21;12.13;;;4.17;;
3417;SDS011;68007;51.312;12.372;2024-03-17T10:47:50;10.30;;;4.20;;
3417;SDS011;68007;51.312;12.372;2024-03-17T10:50:21;7.97;;;4.07;;
3417;SDS011;68007;51.312;12.372;2024-03-17T10:52:50;9.07;;;4.50;;
3417;SDS011;68007;51.312;12.372;2024-03-17T10:55:20;8.37;;;3.80;;
3417;SDS011;68007;51.312;12.372;2024-03-17T10:57:50;9.63;;;4.00;;
3417;SDS011;68007;51.312;12.372;2024-03-17T11:00:18;11.47;;;4.23;;
3417;SDS011;68007;51.312;12.372;2024-03-17T11:02:48;9.60;;;4.03;;
3417;SDS011;68007;51.312;12.372;2024-03-17T11:05:18;9.67;;;3.97;;
3417;SDS011;68007;51.312;12.372;2024-03-17T11:07:50;8.30;;;4.30;;
3417;SDS011;68007;51.312;12.372;2024-03-17T11:10:21;7.80;;;4.20;;
3417;SDS011;68007;51.312;12.372;2024-03-17T11:12:49;12.67;;;5.20;;
3417;SDS011;68007;51.312;12.372;2024-03-17T11:15:39;16.13;;;7.20;;
3417;SDS011;68007;51.312;12.372;2024-03-17T11:18:31;9.60;;;6.10;;
3417;SDS011;68007;51.312;12.372;2024-03-17T11:21:18;13.53;;;6.33;;
3417;SDS011;68007;51.312;12.372;2024-03-17T11:23:57;10.80;;;6.00;;
3417;SDS011;68007;51.312;12.372;2024-03-17T11:26:26;12.80;;;6.53;;
3417;SDS011;68007;51.312;12.372;2024-03-17T11:28:56;13.13;;;6.00;;
3417;SDS011;68007;51.312;12.372;2024-03-17T11:31:34;9.17;;;6.20;;
3417;SDS011;68007;51.312;12.372;2024-03-17T11:34:07;9.90;;;6.57;;
3417;SDS011;68007;51.312;12.372;2024-03-17T11:36:55;14.67;;;7.10;;
3417;SDS011;68007;51.312;12.372;2024-03-17T11:42:16;14.80;;;7.33;;
3417;SDS011;68007;51.312;12.372;2024-03-17T11:44:56;12.33;;;7.97;;
3417;SDS011;68007;51.312;12.372;2024-03-17T11:47:32;12.30;;;7.30;;
3417;SDS011;68007;51.312;12.372;2024-03-17T11:50:02;16.50;;;6.73;;
3417;SDS011;68007;51.312;12.372;2024-03-17T11:52:31;10.03;;;6.63;;
3417;SDS011;68007;51.312;12.372;2024-03-17T11:54:59;10.10;;;7.07;;
3417;SDS011;68007;51.312;12.372;2024-03-17T11:57:25;12.87;;;7.93;;
3417;SDS011;68007;51.312;12.372;2024-03-17T11:59:54;10.70;;;6.90;;
3417;SDS011;68007;51.312;12.372;2024-03-17T12:02:22;9.07;;;5.90;;
3417;SDS011;68007;51.312;12.372;2024-03-17T12:04:52;10.80;;;6.10;;
3417;SDS011;68007;51.312;12.372;2024-03-17T12:07:21;11.60;;;6.37;;
3417;SDS011;68007;51.312;12.372;2024-03-17T12:09:51;13.83;;;6.90;;
3417;SDS011;68007;51.312;12.372;2024-03-17T12:12:20;8.73;;;6.10;;
3417;SDS011;68007;51.312;12.372;2024-03-17T12:14:47;9.93;;;6.17;;
3417;SDS011;68007;51.312;12.372;2024-03-17T12:17:20;9.03;;;6.37;;
3417;SDS011;68007;51.312;12.372;2024-03-17T12:19:47;13.83;;;6.30;;
3417;SDS011;68007;51.312;12.372;2024-03-17T12:22:15;11.27;;;5.50;;
3417;SDS011;68007;51.312;12.372;2024-03-17T12:24:47;7.00;;;4.87;;
3417;SDS011;68007;51.312;12.372;2024-03-17T12:27:18;10.53;;;5.87;;
3417;SDS011;68007;51.312;12.372;2024-03-17T12:29:46;10.57;;;5.23;;
3417;SDS011;68007;51.312;12.372;2024-03-17T12:32:15;10.40;;;5.20;;
3417;SDS011;68007;51.312;12.372;2024-03-17T12:34:43;11.50;;;5.20;;
3417;SDS011;68007;51.312;12.372;2024-03-17T12:37:14;8.33;;;4.73;;
3417;SDS011;68007;51.312;12.372;2024-03-17T12:39:42;9.83;;;5.20;;
3417;SDS011;68007;51.312;12.372;2024-03-17T12:42:10;11.07;;;4.60;;
3417;SDS011;68007;51.312;12.372;2024-03-17T12:44:40;6.00;;;4.07;;
3417;SDS011;68007;51.312;12.372;2024-03-17T12:47:15;6.80;;;3.73;;
3417;SDS011;68007;51.312;12.372;2024-03-17T12:49:44;7.63;;;4.00;;
3417;SDS011;68007;51.312;12.372;2024-03-17T12:52:19;7.87;;;4.43;;
3417;SDS011;68007;51.312;12.372;2024-03-17T12:54:58;5.70;;;4.90;;
3417;SDS011;68007;51.312;12.372;2024-03-17T12:57:40;11.83;;;4.33;;
3417;SDS011;68007;51.312;12.372;2024-03-17T13:00:26;6.00;;;3.70;;
3417;SDS011;68007;51.312;12.372;2024-03-17T13:03:00;8.47;;;4.40;;
3417;SDS011;68007;51.312;12.372;2024-03-17T13:05:28;7.97;;;3.93;;
3417;SDS011;68007;51.312;12.372;2024-03-17T13:07:57;7.47;;;2.90;;
3417;SDS011;68007;51.312;12.372;2024-03-17T13:10:25;5.20;;;3.10;;
3417;SDS011;68007;51.312;12.372;2024-03-17T13:13:01;10.73;;;3.60;;
3417;SDS011;68007;51.312;12.372;2024-03-17T13:15:31;9.13;;;3.97;;
3417;SDS011;68007;51.312;12.372;2024-03-17T13:18:00;6.73;;;3.90;;
3417;SDS011;68007;51.312;12.372;2024-03-17T13:20:30;9.40;;;5.27;;
3417;SDS011;68007;51.312;12.372;2024-03-17T13:22:58;8.27;;;5.60;;
3417;SDS011;68007;51.312;12.372;2024-03-17T13:25:27;9.93;;;4.70;;
3417;SDS011;68007;51.312;12.372;2024-03-17T13:28:00;6.50;;;3.53;;
3417;SDS011;68007;51.312;12.372;2024-03-17T13:30:30;7.20;;;3.80;;
3417;SDS011;68007;51.312;12.372;2024-03-17T13:32:59;14.40;;;4.43;;
3417;SDS011;68007;51.312;12.372;2024-03-17T13:35:27;9.03;;;4.20;;
3417;SDS011;68007;51.312;12.372;2024-03-17T13:37:56;5.37;;;3.70;;
3417;SDS011;68007;51.312;12.372;2024-03-17T13:40:25;7.37;;;3.00;;
3417;SDS011;68007;51.312;12.372;2024-03-17T13:42:54;3.97;;;2.70;;
3417;SDS011;68007;51.312;12.372;2024-03-17T13:45:24;7.90;;;3.37;;
3417;SDS011;68007;51.312;12.372;2024-03-17T13:47:56;14.10;;;4.00;;
3417;SDS011;68007;51.312;12.372;2024-03-17T13:50:26;5.60;;;3.10;;
3417;SDS011;68007;51.312;12.372;2024-03-17T13:52:54;6.30;;;3.37;;
3417;SDS011;68007;51.312;12.372;2024-03-17T13:55:21;4.00;;;2.83;;
3417;SDS011;68007;51.312;12.372;2024-03-17T13:57:51;9.73;;;3.33;;
3417;SDS011;68007;51.312;12.372;2024-03-17T14:00:21;10.50;;;2.90;;
3417;SDS011;68007;51.312;12.372;2024-03-17T14:02:49;9.87;;;3.87;;
3417;SDS011;68007;51.312;12.372;2024-03-17T14:05:20;5.63;;;3.17;;
3417;SDS011;68007;51.312;12.372;2024-03-17T14:07:49;5.13;;;2.43;;
3417;SDS011;68007;51.312;12.372;2024-03-17T14:10:18;7.20;;;2.90;;
3417;SDS011;68007;51.312;12.372;2024-03-17T14:12:46;5.73;;;2.83;;
3417;SDS011;68007;51.312;12.372;2024-03-17T14:15:14;5.00;;;3.20;;
3417;SDS011;68007;51.312;12.372;2024-03-17T14:17:42;5.20;;;3.07;;
3417;SDS011;68007;51.312;12.372;2024-03-17T14:20:12;7.37;;;3.10;;
3417;SDS011;68007;51.312;12.372;2024-03-17T14:22:41;3.50;;;2.77;;
3417;SDS011;68007;51.312;12.372;2024-03-17T14:25:10;8.13;;;3.03;;
3417;SDS011;68007;51.312;12.372;2024-03-17T14:27:42;6.43;;;2.57;;
3417;SDS011;68007;51.312;12.372;2024-03-17T14:30:10;7.33;;;2.80;;
3417;SDS011;68007;51.312;12.372;2024-03-17T14:32:41;5.63;;;2.67;;
3417;SDS011;68007;51.312;12.372;2024-03-17T14:35:09;5.37;;;2.53;;
3417;SDS011;68007;51.312;12.372;2024-03-17T14:37:39;6.27;;;3.00;;
3417;SDS011;68007;51.312;12.372;2024-03-17T14:40:13;5.60;;;2.10;;
3417;SDS011;68007;51.312;12.372;2024-03-17T14:42:47;7.27;;;2.83;;
3417;SDS011;68007;51.312;12.372;2024-03-17T14:45:15;7.57;;;3.10;;
3417;SDS011;68007;51.312;12.372;2024-03-17T14:47:42;8.10;;;2.87;;
3417;SDS011;68007;51.312;12.372;2024-03-17T14:50:11;9.63;;;3.07;;
3417;SDS011;68007;51.312;12.372;2024-03-17T14:52:38;4.30;;;2.43;;
3417;SDS011;68007;51.312;12.372;2024-03-17T14:55:09;4.33;;;2.00;;
3417;SDS011;68007;51.312;12.372;2024-03-17T14:57:37;6.53;;;2.60;;
3417;SDS011;68007;51.312;12.372;2024-03-17T15:00:06;8.00;;;2.90;;